sensor_id;sensor_type;location;lat;lon;timestamp;pressure;altitude;pressure_sealevel;temperature;humidity
43701;BME280;58809;47.984;7.964;2023-03-16T00:00:18;97466.53;;;7.28;56.18
43701;BME280;58809;47.984;7.964;2023-03-16T00:03:20;97464.13;;;7.17;56.81
43701;BME280;58809;47.984;7.964;2023-03-16T00:06:21;97462.94;;;7.11;57.13
43701;BME280;58809;47.984;7.964;2023-03-16T00:09:25;97467.03;;;7.06;57.03
43701;BME280;58809;47.984;7.964;2023-03-16T00:12:31;97460.63;;;6.90;57.21
43701;BME280;58809;47.984;7.964;2023-03-16T00:15:35;97475.63;;;7.95;55.57
43701;BME280;58809;47.984;7.964;2023-03-16T00:18:37;97466.63;;;8.05;55.00
43701;BME280;58809;47.984;7.964;2023-03-16T00:21:41;97466.31;;;8.08;54.67
43701;BME280;58809;47.984;7.964;2023-03-16T00:24:42;97462.84;;;8.08;54.81
43701;BME280;58809;47.984;7.964;2023-03-16T00:27:44;97458.25;;;8.10;54.68
43701;BME280;58809;47.984;7.964;2023-03-16T00:30:45;97462.56;;;8.19;54.49
43701;BME280;58809;47.984;7.964;2023-03-16T00:33:48;97468.69;;;8.28;54.24
43701;BME280;58809;47.984;7.964;2023-03-16T00:36:51;97474.28;;;8.33;54.27
43701;BME280;58809;47.984;7.964;2023-03-16T00:39:53;97469.66;;;8.27;53.96
43701;BME280;58809;47.984;7.964;2023-03-16T00:42:58;97471.09;;;8.13;54.18
43701;BME280;58809;47.984;7.964;2023-03-16T00:46:00;97467.47;;;8.06;54.30
43701;BME280;58809;47.984;7.964;2023-03-16T00:49:07;97460.84;;;8.02;54.59
43701;BME280;58809;47.984;7.964;2023-03-16T00:52:11;97452.28;;;8.00;54.65
43701;BME280;58809;47.984;7.964;2023-03-16T00:55:15;97444.38;;;8.00;54.54
43701;BME280;58809;47.984;7.964;2023-03-16T00:58:16;97444.72;;;8.05;54.54
43701;BME280;58809;47.984;7.964;2023-03-16T01:01:19;97439.75;;;7.94;54.50
43701;BME280;58809;47.984;7.964;2023-03-16T01:04:21;97438.88;;;7.85;54.48
43701;BME280;58809;47.984;7.964;2023-03-16T01:07:23;97440.78;;;7.75;54.32
43701;BME280;58809;47.984;7.964;2023-03-16T01:10:25;97436.28;;;7.59;54.96
43701;BME280;58809;47.984;7.964;2023-03-16T01:13:27;97436.88;;;7.52;54.97
43701;BME280;58809;47.984;7.964;2023-03-16T01:16:28;97427.97;;;7.45;55.21
43701;BME280;58809;47.984;7.964;2023-03-16T01:19:30;97432.25;;;7.46;55.21
43701;BME280;58809;47.984;7.964;2023-03-16T01:22:37;97431.28;;;7.47;54.70
43701;BME280;58809;47.984;7.964;2023-03-16T01:25:39;97426.31;;;7.44;55.38
43701;BME280;58809;47.984;7.964;2023-03-16T01:28:41;97421.06;;;7.44;55.36
43701;BME280;58809;47.984;7.964;2023-03-16T01:31:44;97411.56;;;7.51;55.23
43701;BME280;58809;47.984;7.964;2023-03-16T01:34:46;97414.84;;;7.54;55.34
43701;BME280;58809;47.984;7.964;2023-03-16T01:37:49;97406.28;;;7.51;54.98
43701;BME280;58809;47.984;7.964;2023-03-16T01:40:55;97409.59;;;7.54;55.21
43701;BME280;58809;47.984;7.964;2023-03-16T01:43:57;97412.38;;;7.52;55.09
43701;BME280;58809;47.984;7.964;2023-03-16T01:47:01;97421.06;;;7.44;55.07
43701;BME280;58809;47.984;7.964;2023-03-16T01:50:04;97418.69;;;7.33;54.89
43701;BME280;58809;47.984;7.964;2023-03-16T01:53:08;97412.16;;;7.19;55.38
43701;BME280;58809;47.984;7.964;2023-03-16T01:56:14;97412.25;;;7.27;55.50
43701;BME280;58809;47.984;7.964;2023-03-16T01:59:20;97405.41;;;7.17;55.70
43701;BME280;58809;47.984;7.964;2023-03-16T02:02:28;97410.69;;;7.17;55.61
43701;BME280;58809;47.984;7.964;2023-03-16T02:05:34;97404.09;;;7.12;55.47
43701;BME280;58809;47.984;7.964;2023-03-16T02:08:39;97410.03;;;7.15;55.57
43701;BME280;58809;47.984;7.964;2023-03-16T02:11:43;97410.16;;;7.13;55.59
43701;BME280;58809;47.984;7.964;2023-03-16T02:14:47;97407.69;;;7.11;55.61
43701;BME280;58809;47.984;7.964;2023-03-16T02:17:50;97408.66;;;7.10;55.69
43701;BME280;58809;47.984;7.964;2023-03-16T02:21:17;97409.50;;;7.11;55.94
43701;BME280;58809;47.984;7.964;2023-03-16T02:24:20;97399.13;;;7.09;55.41
43701;BME280;58809;47.984;7.964;2023-03-16T02:31:17;97407.03;;;6.91;56.19
43701;BME280;58809;47.984;7.964;2023-03-16T02:34:20;97392.31;;;6.81;56.32
43701;BME280;58809;47.984;7.964;2023-03-16T02:37:21;97398.63;;;6.88;56.39
43701;BME280;58809;47.984;7.964;2023-03-16T02:40:31;97388.09;;;6.88;56.44
43701;BME280;58809;47.984;7.964;2023-03-16T02:43:39;97388.09;;;6.88;56.38
43701;BME280;58809;47.984;7.964;2023-03-16T02:46:59;97391.75;;;6.87;56.53
43701;BME280;58809;47.984;7.964;2023-03-16T02:50:04;97377.81;;;6.94;56.30
43701;BME280;58809;47.984;7.964;2023-03-16T02:53:07;97369.78;;;6.96;56.11
43701;BME280;58809;47.984;7.964;2023-03-16T02:56:09;97358.56;;;6.94;56.22
43701;BME280;58809;47.984;7.964;2023-03-16T02:59:11;97356.09;;;6.92;56.46
43701;BME280;58809;47.984;7.964;2023-03-16T03:02:13;97353.75;;;6.89;56.04
43701;BME280;58809;47.984;7.964;2023-03-16T03:05:14;97352.56;;;6.84;56.48
43701;BME280;58809;47.984;7.964;2023-03-16T03:08:16;97355.91;;;6.94;56.20
43701;BME280;58809;47.984;7.964;2023-03-16T03:11:20;97347.88;;;6.96;56.40
43701;BME280;58809;47.984;7.964;2023-03-16T03:14:22;97352.69;;;7.00;56.13
43701;BME280;58809;47.984;7.964;2023-03-16T03:17:25;97353.66;;;6.99;56.14
43701;BME280;58809;47.984;7.964;2023-03-16T03:20:31;97354.00;;;6.96;55.88
43701;BME280;58809;47.984;7.964;2023-03-16T03:23:33;97345.56;;;6.92;56.10
43701;BME280;58809;47.984;7.964;2023-03-16T03:26:40;97346.25;;;6.94;56.39
43701;BME280;58809;47.984;7.964;2023-03-16T03:29:49;97340.13;;;6.94;56.25
43701;BME280;58809;47.984;7.964;2023-03-16T03:32:51;97343.97;;;7.00;56.22
43701;BME280;58809;47.984;7.964;2023-03-16T03:35:55;97336.41;;;7.05;56.35
43701;BME280;58809;47.984;7.964;2023-03-16T03:38:59;97342.34;;;7.07;56.11
43701;BME280;58809;47.984;7.964;2023-03-16T03:42:07;97336.13;;;7.08;56.52
43701;BME280;58809;47.984;7.964;2023-03-16T03:45:10;97333.94;;;7.03;56.00
43701;BME280;58809;47.984;7.964;2023-03-16T03:48:14;97349.25;;;7.00;56.32
43701;BME280;58809;47.984;7.964;2023-03-16T03:51:16;97342.47;;;6.97;56.25
43701;BME280;58809;47.984;7.964;2023-03-16T03:54:36;97338.50;;;6.93;56.03
43701;BME280;58809;47.984;7.964;2023-03-16T03:57:42;97333.03;;;6.86;56.33
43701;BME280;58809;47.984;7.964;2023-03-16T04:00:44;97342.34;;;6.81;56.63
43701;BME280;58809;47.984;7.964;2023-03-16T04:03:45;97337.66;;;6.66;56.80
43701;BME280;58809;47.984;7.964;2023-03-16T04:06:49;97335.34;;;6.63;56.66
43701;BME280;58809;47.984;7.964;2023-03-16T04:09:52;97338.94;;;6.62;56.94
43701;BME280;58809;47.984;7.964;2023-03-16T04:13:08;97334.84;;;6.42;57.57
43701;BME280;58809;47.984;7.964;2023-03-16T04:16:11;97333.41;;;6.47;57.39
43701;BME280;58809;47.984;7.964;2023-03-16T04:19:19;97343.44;;;6.52;57.50
43701;BME280;58809;47.984;7.964;2023-03-16T04:22:21;97339.03;;;6.52;57.22
43701;BME280;58809;47.984;7.964;2023-03-16T04:25:26;97343.63;;;6.50;57.71
43701;BME280;58809;47.984;7.964;2023-03-16T04:28:28;97343.63;;;6.50;56.90
43701;BME280;58809;47.984;7.964;2023-03-16T04:31:30;97342.09;;;6.48;57.03
43701;BME280;58809;47.984;7.964;2023-03-16T04:34:32;97331.78;;;6.72;56.50
43701;BME280;58809;47.984;7.964;2023-03-16T04:37:37;97335.47;;;6.80;56.36
43701;BME280;58809;47.984;7.964;2023-03-16T04:40:39;97335.47;;;6.80;56.13
43701;BME280;58809;47.984;7.964;2023-03-16T04:43:49;97333.13;;;6.77;56.60
43701;BME280;58809;47.984;7.964;2023-03-16T04:46:54;97331.97;;;6.79;56.18
43701;BME280;58809;47.984;7.964;2023-03-16T04:49:57;97328.69;;;6.77;56.58
43701;BME280;58809;47.984;7.964;2023-03-16T04:52:59;97323.56;;;6.75;56.79
43701;BME280;58809;47.984;7.964;2023-03-16T04:56:02;97322.91;;;6.73;56.25
43701;BME280;58809;47.984;7.964;2023-03-16T04:59:05;97313.97;;;6.66;56.48
43701;BME280;58809;47.984;7.964;2023-03-16T05:02:17;97312.19;;;6.67;56.79
43701;BME280;58809;47.984;7.964;2023-03-16T05:05:21;97301.81;;;6.65;56.99
43701;BME280;58809;47.984;7.964;2023-03-16T05:08:23;97303.16;;;6.69;56.43
43701;BME280;58809;47.984;7.964;2023-03-16T05:11:27;97302.88;;;6.72;56.35
43701;BME280;58809;47.984;7.964;2023-03-16T05:14:32;97300.22;;;6.72;56.58
43701;BME280;58809;47.984;7.964;2023-03-16T05:17:59;97298.16;;;6.84;56.73
43701;BME280;58809;47.984;7.964;2023-03-16T05:21:02;97292.59;;;6.87;56.46
43701;BME280;58809;47.984;7.964;2023-03-16T05:24:15;97286.34;;;6.88;56.76
43701;BME280;58809;47.984;7.964;2023-03-16T05:27:17;97290.50;;;6.99;56.05
43701;BME280;58809;47.984;7.964;2023-03-16T05:30:19;97283.28;;;7.01;56.15
43701;BME280;58809;47.984;7.964;2023-03-16T05:33:23;97284.97;;;7.10;56.34
43701;BME280;58809;47.984;7.964;2023-03-16T05:36:32;97288.63;;;7.18;56.04
43701;BME280;58809;47.984;7.964;2023-03-16T05:39:41;97286.34;;;7.23;55.72
43701;BME280;58809;47.984;7.964;2023-03-16T05:42:45;97293.78;;;7.27;55.89
43701;BME280;58809;47.984;7.964;2023-03-16T05:45:47;97291.84;;;7.38;55.73
43701;BME280;58809;47.984;7.964;2023-03-16T05:48:51;97291.03;;;7.37;55.61
43701;BME280;58809;47.984;7.964;2023-03-16T05:51:54;97301.41;;;7.39;55.86
43701;BME280;58809;47.984;7.964;2023-03-16T05:54:56;97299.63;;;7.47;55.65
43701;BME280;58809;47.984;7.964;2023-03-16T05:57:58;97301.41;;;7.39;56.01
43701;BME280;58809;47.984;7.964;2023-03-16T06:01:00;97309.16;;;7.40;55.82
43701;BME280;58809;47.984;7.964;2023-03-16T06:04:04;97304.41;;;7.52;56.33
43701;BME280;58809;47.984;7.964;2023-03-16T06:07:09;97307.56;;;7.56;55.79
43701;BME280;58809;47.984;7.964;2023-03-16T06:10:12;97315.16;;;7.67;55.93
43701;BME280;58809;47.984;7.964;2023-03-16T06:13:14;97307.75;;;7.70;55.56
43701;BME280;58809;47.984;7.964;2023-03-16T06:16:16;97312.25;;;7.95;55.41
43701;BME280;58809;47.984;7.964;2023-03-16T06:19:18;97315.28;;;8.08;55.20
43701;BME280;58809;47.984;7.964;2023-03-16T06:22:25;97315.44;;;8.15;54.84
43701;BME280;58809;47.984;7.964;2023-03-16T06:25:27;97322.53;;;8.31;55.15
43701;BME280;58809;47.984;7.964;2023-03-16T06:28:29;97329.47;;;8.40;54.99
43701;BME280;58809;47.984;7.964;2023-03-16T06:31:31;97330.47;;;8.55;54.41
43701;BME280;58809;47.984;7.964;2023-03-16T06:34:35;97316.28;;;8.81;53.99
43701;BME280;58809;47.984;7.964;2023-03-16T06:37:39;97311.16;;;8.96;53.81
43701;BME280;58809;47.984;7.964;2023-03-16T06:40:56;97310.66;;;9.09;53.76
43701;BME280;58809;47.984;7.964;2023-03-16T06:43:58;97314.06;;;9.25;53.69
43701;BME280;58809;47.984;7.964;2023-03-16T06:47:00;97319.50;;;9.24;54.33
43701;BME280;58809;47.984;7.964;2023-03-16T06:50:03;97311.53;;;9.32;54.09
43701;BME280;58809;47.984;7.964;2023-03-16T06:53:05;97314.31;;;9.47;53.19
43701;BME280;58809;47.984;7.964;2023-03-16T06:56:08;97313.41;;;9.63;53.68
43701;BME280;58809;47.984;7.964;2023-03-16T06:59:14;97316.03;;;9.71;53.67
43701;BME280;58809;47.984;7.964;2023-03-16T07:02:15;97309.47;;;9.90;53.32
43701;BME280;58809;47.984;7.964;2023-03-16T07:05:17;97312.50;;;10.10;52.43
43701;BME280;58809;47.984;7.964;2023-03-16T07:08:20;97320.13;;;10.28;51.76
43701;BME280;58809;47.984;7.964;2023-03-16T07:11:22;97330.09;;;10.49;52.27
43701;BME280;58809;47.984;7.964;2023-03-16T07:14:24;97306.84;;;10.83;51.62
43701;BME280;58809;47.984;7.964;2023-03-16T07:17:28;97304.41;;;11.26;50.67
43701;BME280;58809;47.984;7.964;2023-03-16T07:20:30;97292.16;;;12.06;48.96
43701;BME280;58809;47.984;7.964;2023-03-16T07:23:36;97286.91;;;12.12;48.53
43701;BME280;58809;47.984;7.964;2023-03-16T07:26:39;97288.31;;;11.42;49.91
43701;BME280;58809;47.984;7.964;2023-03-16T07:29:42;97278.41;;;11.66;50.04
43701;BME280;58809;47.984;7.964;2023-03-16T07:32:44;97280.06;;;12.25;48.35
43701;BME280;58809;47.984;7.964;2023-03-16T07:35:45;97265.13;;;12.17;48.66
43701;BME280;58809;47.984;7.964;2023-03-16T07:38:47;97251.22;;;12.15;49.06
43701;BME280;58809;47.984;7.964;2023-03-16T07:41:49;97250.84;;;12.18;48.72
43701;BME280;58809;47.984;7.964;2023-03-16T07:45:04;97238.75;;;12.37;48.58
43701;BME280;58809;47.984;7.964;2023-03-16T07:48:05;97233.09;;;12.40;48.40
43701;BME280;58809;47.984;7.964;2023-03-16T07:51:15;97223.63;;;12.31;48.62
43701;BME280;58809;47.984;7.964;2023-03-16T07:54:21;97223.97;;;12.49;47.28
43701;BME280;58809;47.984;7.964;2023-03-16T07:57:22;97233.25;;;12.95;46.17
43701;BME280;58809;47.984;7.964;2023-03-16T08:00:24;97245.00;;;13.14;45.15
43701;BME280;58809;47.984;7.964;2023-03-16T08:03:27;97255.91;;;12.91;45.41
43701;BME280;58809;47.984;7.964;2023-03-16T08:06:29;97247.34;;;12.67;45.49
43701;BME280;58809;47.984;7.964;2023-03-16T08:09:32;97252.63;;;13.24;45.37
43701;BME280;58809;47.984;7.964;2023-03-16T08:12:39;97241.34;;;13.15;45.30
43701;BME280;58809;47.984;7.964;2023-03-16T08:15:44;97240.38;;;13.23;44.78
43701;BME280;58809;47.984;7.964;2023-03-16T08:18:57;97240.72;;;13.55;43.66
43701;BME280;58809;47.984;7.964;2023-03-16T08:22:00;97244.31;;;13.95;42.80
43701;BME280;58809;47.984;7.964;2023-03-16T08:25:10;97238.00;;;14.23;42.02
43701;BME280;58809;47.984;7.964;2023-03-16T08:28:19;97253.81;;;14.44;41.75
43701;BME280;58809;47.984;7.964;2023-03-16T08:31:27;97245.84;;;14.58;41.02
43701;BME280;58809;47.984;7.964;2023-03-16T08:34:39;97239.91;;;14.69;40.94
43701;BME280;58809;47.984;7.964;2023-03-16T08:37:42;97239.06;;;14.75;40.45
43701;BME280;58809;47.984;7.964;2023-03-16T08:40:45;97244.41;;;14.82;40.33
43701;BME280;58809;47.984;7.964;2023-03-16T08:43:51;97239.50;;;14.86;39.70
43701;BME280;58809;47.984;7.964;2023-03-16T08:46:54;97241.91;;;14.87;39.29
43701;BME280;58809;47.984;7.964;2023-03-16T08:49:56;97243.78;;;14.87;39.42
43701;BME280;58809;47.984;7.964;2023-03-16T08:52:58;97257.50;;;14.83;39.15
43701;BME280;58809;47.984;7.964;2023-03-16T08:56:03;97255.66;;;14.91;38.82
43701;BME280;58809;47.984;7.964;2023-03-16T08:59:06;97245.41;;;14.88;38.46
43701;BME280;58809;47.984;7.964;2023-03-16T09:02:23;97226.75;;;15.01;38.60
43701;BME280;58809;47.984;7.964;2023-03-16T09:05:26;97222.41;;;15.07;38.43
43701;BME280;58809;47.984;7.964;2023-03-16T09:08:28;97225.28;;;15.05;38.22
43701;BME280;58809;47.984;7.964;2023-03-16T09:11:30;97226.53;;;14.96;38.66
43701;BME280;58809;47.984;7.964;2023-03-16T09:14:34;97235.28;;;15.16;39.49
43701;BME280;58809;47.984;7.964;2023-03-16T09:17:39;97232.63;;;15.23;40.05
43701;BME280;58809;47.984;7.964;2023-03-16T09:20:42;97205.81;;;15.05;40.71
43701;BME280;58809;47.984;7.964;2023-03-16T09:23:44;97185.44;;;15.30;40.91
43701;BME280;58809;47.984;7.964;2023-03-16T09:26:46;97193.72;;;16.24;39.46
43701;BME280;58809;47.984;7.964;2023-03-16T09:29:48;97190.38;;;15.72;38.76
43701;BME280;58809;47.984;7.964;2023-03-16T09:32:51;97182.47;;;15.52;38.46
43701;BME280;58809;47.984;7.964;2023-03-16T09:35:53;97177.84;;;15.72;38.31
43701;BME280;58809;47.984;7.964;2023-03-16T09:38:56;97180.72;;;15.77;38.08
43701;BME280;58809;47.984;7.964;2023-03-16T09:42:04;97179.09;;;15.70;37.84
43701;BME280;58809;47.984;7.964;2023-03-16T09:45:14;97163.47;;;15.80;37.37
43701;BME280;58809;47.984;7.964;2023-03-16T09:48:20;97162.63;;;15.86;36.77
43701;BME280;58809;47.984;7.964;2023-03-16T09:51:38;97163.94;;;15.64;37.02
43701;BME280;58809;47.984;7.964;2023-03-16T09:55:41;97174.88;;;15.55;36.44
43701;BME280;58809;47.984;7.964;2023-03-16T09:58:19;97169.53;;;15.55;36.94
43701;BME280;58809;47.984;7.964;2023-03-16T10:01:39;97175.50;;;15.89;35.96
43701;BME280;58809;47.984;7.964;2023-03-16T10:05:07;97175.31;;;15.84;35.52
43701;BME280;58809;47.984;7.964;2023-03-16T10:08:22;97171.22;;;15.88;35.34
43701;BME280;58809;47.984;7.964;2023-03-16T10:11:30;97158.75;;;16.07;34.76
43701;BME280;58809;47.984;7.964;2023-03-16T10:14:44;97160.88;;;15.98;37.47
43701;BME280;58809;47.984;7.964;2023-03-16T10:18:04;97154.53;;;15.61;40.20
43701;BME280;58809;47.984;7.964;2023-03-16T10:21:15;97163.34;;;15.62;40.46
43701;BME280;58809;47.984;7.964;2023-03-16T10:24:36;97157.72;;;15.38;41.34
43701;BME280;58809;47.984;7.964;2023-03-16T10:27:42;97145.44;;;15.37;41.76
43701;BME280;58809;47.984;7.964;2023-03-16T10:30:47;97150.81;;;15.24;42.01
43701;BME280;58809;47.984;7.964;2023-03-16T10:33:55;97161.38;;;14.98;43.00
43701;BME280;58809;47.984;7.964;2023-03-16T10:36:58;97163.09;;;14.66;44.17
43701;BME280;58809;47.984;7.964;2023-03-16T10:40:07;97158.59;;;14.33;44.63
43701;BME280;58809;47.984;7.964;2023-03-16T10:43:12;97154.09;;;14.00;45.00
43701;BME280;58809;47.984;7.964;2023-03-16T10:46:14;97157.34;;;13.89;45.40
43701;BME280;58809;47.984;7.964;2023-03-16T10:49:23;97147.75;;;13.95;45.88
43701;BME280;58809;47.984;7.964;2023-03-16T10:52:39;97145.69;;;14.23;45.38
43701;BME280;58809;47.984;7.964;2023-03-16T10:55:42;97149.13;;;14.77;44.38
43701;BME280;58809;47.984;7.964;2023-03-16T10:58:46;97160.97;;;14.95;44.03
43701;BME280;58809;47.984;7.964;2023-03-16T11:01:47;97166.47;;;15.00;43.97
43701;BME280;58809;47.984;7.964;2023-03-16T11:04:52;97163.03;;;14.86;43.97
43701;BME280;58809;47.984;7.964;2023-03-16T11:08:07;97164.59;;;15.07;43.70
43701;BME280;58809;47.984;7.964;2023-03-16T11:11:20;97148.19;;;15.17;43.74
43701;BME280;58809;47.984;7.964;2023-03-16T11:14:27;97140.31;;;15.35;44.11
43701;BME280;58809;47.984;7.964;2023-03-16T11:17:38;97138.22;;;15.44;42.88
43701;BME280;58809;47.984;7.964;2023-03-16T11:20:43;97142.09;;;15.48;42.74
43701;BME280;58809;47.984;7.964;2023-03-16T11:23:53;97137.44;;;15.69;42.73
43701;BME280;58809;47.984;7.964;2023-03-16T11:26:59;97144.06;;;15.91;42.51
43701;BME280;58809;47.984;7.964;2023-03-16T11:33:25;97130.13;;;16.21;41.62
43701;BME280;58809;47.984;7.964;2023-03-16T11:36:36;97134.47;;;16.15;41.31
43701;BME280;58809;47.984;7.964;2023-03-16T11:40:02;97124.28;;;16.06;41.01
43701;BME280;58809;47.984;7.964;2023-03-16T11:43:52;97129.72;;;15.92;42.31
43701;BME280;58809;47.984;7.964;2023-03-16T11:47:11;97120.03;;;15.98;42.36
43701;BME280;58809;47.984;7.964;2023-03-16T11:56:32;97134.28;;;15.85;42.20
43701;BME280;58809;47.984;7.964;2023-03-16T12:00:00;97123.28;;;16.00;41.83
43701;BME280;58809;47.984;7.964;2023-03-16T12:03:51;97121.47;;;16.19;41.50
43701;BME280;58809;47.984;7.964;2023-03-16T12:20:02;97110.66;;;16.14;41.55
43701;BME280;58809;47.984;7.964;2023-03-16T12:23:12;97105.06;;;19.17;38.41
43701;BME280;58809;47.984;7.964;2023-03-16T12:26:17;97094.38;;;19.62;36.61
43701;BME280;58809;47.984;7.964;2023-03-16T12:29:27;97099.09;;;19.55;36.62
43701;BME280;58809;47.984;7.964;2023-03-16T12:32:42;97102.19;;;19.64;36.06
43701;BME280;58809;47.984;7.964;2023-03-16T12:39:19;97087.88;;;19.58;36.33
43701;BME280;58809;47.984;7.964;2023-03-16T12:48:53;97077.88;;;20.38;35.11
43701;BME280;58809;47.984;7.964;2023-03-16T12:52:05;97072.78;;;20.37;35.27
43701;BME280;58809;47.984;7.964;2023-03-16T12:58:22;97077.47;;;20.47;35.00
43701;BME280;58809;47.984;7.964;2023-03-16T13:01:27;97074.34;;;20.55;34.59
43701;BME280;58809;47.984;7.964;2023-03-16T13:04:31;97075.78;;;20.41;34.99
43701;BME280;58809;47.984;7.964;2023-03-16T13:07:35;97068.41;;;19.97;35.52
43701;BME280;58809;47.984;7.964;2023-03-16T13:10:38;97068.28;;;20.43;34.82
43701;BME280;58809;47.984;7.964;2023-03-16T13:17:29;97070.28;;;20.52;34.87
43701;BME280;58809;47.984;7.964;2023-03-16T13:20:48;97063.28;;;20.68;34.76
43701;BME280;58809;47.984;7.964;2023-03-16T13:23:57;97058.28;;;20.60;34.67
43701;BME280;58809;47.984;7.964;2023-03-16T13:27:11;97051.19;;;20.93;34.29
43701;BME280;58809;47.984;7.964;2023-03-16T13:30:20;97053.25;;;21.08;34.24
43701;BME280;58809;47.984;7.964;2023-03-16T13:33:26;97038.75;;;21.09;34.00
43701;BME280;58809;47.984;7.964;2023-03-16T13:36:29;97038.03;;;21.19;33.95
43701;BME280;58809;47.984;7.964;2023-03-16T13:39:32;97039.44;;;21.26;33.64
43701;BME280;58809;47.984;7.964;2023-03-16T13:42:34;97040.59;;;21.30;33.70
43701;BME280;58809;47.984;7.964;2023-03-16T13:45:37;97031.75;;;21.35;33.35
43701;BME280;58809;47.984;7.964;2023-03-16T13:48:39;97031.38;;;21.26;33.37
43701;BME280;58809;47.984;7.964;2023-03-16T13:51:42;97028.31;;;21.67;33.09
43701;BME280;58809;47.984;7.964;2023-03-16T13:54:45;97027.66;;;21.92;32.79
43701;BME280;58809;47.984;7.964;2023-03-16T13:57:47;97021.53;;;21.97;32.88
43701;BME280;58809;47.984;7.964;2023-03-16T14:00:54;97025.69;;;22.20;32.37
43701;BME280;58809;47.984;7.964;2023-03-16T14:04:01;97016.94;;;22.35;32.44
43701;BME280;58809;47.984;7.964;2023-03-16T14:07:18;97013.44;;;22.39;32.32
43701;BME280;58809;47.984;7.964;2023-03-16T14:10:21;97008.59;;;22.41;32.17
43701;BME280;58809;47.984;7.964;2023-03-16T14:16:30;96994.66;;;22.60;32.18
43701;BME280;58809;47.984;7.964;2023-03-16T14:19:39;96994.63;;;23.23;31.74
43701;BME280;58809;47.984;7.964;2023-03-16T14:22:44;96999.25;;;23.43;31.23
43701;BME280;58809;47.984;7.964;2023-03-16T14:25:47;97002.47;;;23.40;30.76
43701;BME280;58809;47.984;7.964;2023-03-16T14:29:20;97001.91;;;23.33;30.08
43701;BME280;58809;47.984;7.964;2023-03-16T14:32:28;97003.81;;;23.32;30.22
43701;BME280;58809;47.984;7.964;2023-03-16T14:35:42;96990.59;;;23.51;29.75
43701;BME280;58809;47.984;7.964;2023-03-16T14:38:45;97006.81;;;23.67;29.93
43701;BME280;58809;47.984;7.964;2023-03-16T14:41:54;97000.31;;;23.78;30.03
43701;BME280;58809;47.984;7.964;2023-03-16T14:45:03;96989.53;;;23.98;29.66
43701;BME280;58809;47.984;7.964;2023-03-16T14:48:18;96981.31;;;21.25;31.47
43701;BME280;58809;47.984;7.964;2023-03-16T14:51:21;96969.78;;;20.53;33.15
43701;BME280;58809;47.984;7.964;2023-03-16T14:54:23;96973.19;;;20.27;33.45
43701;BME280;58809;47.984;7.964;2023-03-16T14:57:26;96970.63;;;20.15;33.82
43701;BME280;58809;47.984;7.964;2023-03-16T15:00:28;96966.84;;;19.94;33.94
43701;BME280;58809;47.984;7.964;2023-03-16T15:03:35;96973.84;;;19.61;33.94
43701;BME280;58809;47.984;7.964;2023-03-16T15:06:38;96972.94;;;19.21;34.52
43701;BME280;58809;47.984;7.964;2023-03-16T15:09:40;96970.31;;;19.10;34.90
43701;BME280;58809;47.984;7.964;2023-03-16T15:12:46;96959.91;;;18.56;35.59
43701;BME280;58809;47.984;7.964;2023-03-16T15:15:54;96973.53;;;18.42;35.94
43701;BME280;58809;47.984;7.964;2023-03-16T15:18:56;96969.41;;;18.23;36.15
43701;BME280;58809;47.984;7.964;2023-03-16T15:21:59;96969.78;;;18.55;36.27
43701;BME280;58809;47.984;7.964;2023-03-16T15:25:17;96965.50;;;18.54;36.73
43701;BME280;58809;47.984;7.964;2023-03-16T15:28:21;96974.81;;;18.52;37.00
43701;BME280;58809;47.984;7.964;2023-03-16T15:31:24;96970.56;;;18.27;37.87
43701;BME280;58809;47.984;7.964;2023-03-16T15:34:25;96975.94;;;18.03;38.57
43701;BME280;58809;47.984;7.964;2023-03-16T15:37:27;96969.19;;;17.89;38.64
43701;BME280;58809;47.984;7.964;2023-03-16T15:40:30;96976.84;;;17.74;39.05
43701;BME280;58809;47.984;7.964;2023-03-16T15:43:32;96983.22;;;17.49;39.50
43701;BME280;58809;47.984;7.964;2023-03-16T15:46:34;96984.59;;;17.28;39.80
43701;BME280;58809;47.984;7.964;2023-03-16T15:49:37;96984.38;;;17.29;39.83
43701;BME280;58809;47.984;7.964;2023-03-16T15:52:55;96979.25;;;17.40;39.68
43701;BME280;58809;47.984;7.964;2023-03-16T15:56:01;96980.09;;;17.40;39.90
43701;BME280;58809;47.984;7.964;2023-03-16T15:59:04;96984.72;;;17.45;39.92
43701;BME280;58809;47.984;7.964;2023-03-16T16:02:26;96990.31;;;17.43;40.22
43701;BME280;58809;47.984;7.964;2023-03-16T16:05:29;96986.91;;;17.36;40.32
43701;BME280;58809;47.984;7.964;2023-03-16T16:08:31;96988.94;;;17.52;39.86
43701;BME280;58809;47.984;7.964;2023-03-16T16:11:32;96979.06;;;17.53;39.83
43701;BME280;58809;47.984;7.964;2023-03-16T16:14:34;96983.97;;;17.68;40.08
43701;BME280;58809;47.984;7.964;2023-03-16T16:17:35;96977.56;;;17.93;39.57
43701;BME280;58809;47.984;7.964;2023-03-16T16:20:59;96980.31;;;18.33;39.38
43701;BME280;58809;47.984;7.964;2023-03-16T16:24:01;96986.53;;;18.62;39.07
43701;BME280;58809;47.984;7.964;2023-03-16T16:27:03;96982.00;;;19.03;38.75
43701;BME280;58809;47.984;7.964;2023-03-16T16:30:26;96985.50;;;22.56;34.26
43701;BME280;58809;47.984;7.964;2023-03-16T16:33:33;96983.44;;;22.83;33.89
43701;BME280;58809;47.984;7.964;2023-03-16T16:36:36;96980.94;;;22.66;33.54
43701;BME280;58809;47.984;7.964;2023-03-16T16:39:37;96981.06;;;22.97;33.58
43701;BME280;58809;47.984;7.964;2023-03-16T16:42:39;96986.25;;;24.07;32.55
43701;BME280;58809;47.984;7.964;2023-03-16T16:45:41;96986.97;;;24.58;31.75
43701;BME280;58809;47.984;7.964;2023-03-16T16:48:48;96991.81;;;24.51;31.75
43701;BME280;58809;47.984;7.964;2023-03-16T16:51:51;96982.53;;;23.87;32.22
43701;BME280;58809;47.984;7.964;2023-03-16T16:54:52;96977.06;;;23.25;32.99
43701;BME280;58809;47.984;7.964;2023-03-16T16:57:54;96979.59;;;22.69;33.43
43701;BME280;58809;47.984;7.964;2023-03-16T17:00:56;96986.53;;;21.64;34.42
43701;BME280;58809;47.984;7.964;2023-03-16T17:04:00;96981.53;;;21.19;35.53
43701;BME280;58809;47.984;7.964;2023-03-16T17:07:04;96989.34;;;20.49;36.72
43701;BME280;58809;47.984;7.964;2023-03-16T17:10:08;96978.38;;;19.94;38.08
43701;BME280;58809;47.984;7.964;2023-03-16T17:13:24;96980.91;;;20.62;37.93
43701;BME280;58809;47.984;7.964;2023-03-16T17:16:29;96982.88;;;20.67;37.90